Everglades City, Florida
Current Conditions -  °F | °C
As of 7:53 AM on Tuesday 21 Oct 2014 (Local Time) from KAPF Reporting Station
Few Clouds Few Clouds  
Wind Chill: 74°   Ceiling: Unl
Heat Index: 74°   Visibility: 10mi
Dew Point: 71°   Wind: 5mph
Humidity: 91%   Direction: 50°NE
Pressure: 29.93"   Gusts: NA
Location:  25.86°N, 81.38°W
Report Text: KAPF 211153Z 05004KT 10SM FEW065 23/22 A2993 RMK AO2 SLP133 T02330217 10250 20233 53005
Loading
Personal Weather Stations






























Interactive Weather Map
Tropical Storm Tracking
New forecast layout! Learn more

10-Day Weather Forecast

Advertisements
Track Severe Weather on mobile